Time;durP1;ratioP1;P1;durP2;ratioP2;P2;SDS_P1;SDS_P2;PMS_P1;PMS_P2;Temp;Humidity;BMP_temperature;BMP_pressure;BME280_temperature;BME280_humidity;BME280_pressure;Samples;Min_cycle;Max_cycle;Signal;HPM_P1;HPM_P2
2024/03/05 00:01:42;;;;;;;28.00;18.30;;;;;;;2.53;100.00;100737.70;108121;1255;73445;-67
2024/03/05 00:04:10;;;;;;;32.20;20.50;;;;;;;2.52;100.00;100737.80;108132;1254;71409;-67
2024/03/05 00:06:38;;;;;;;28.10;18.50;;;;;;;2.53;100.00;100738.05;108015;1260;72705;-67
2024/03/05 00:09:05;;;;;;;28.30;18.50;;;;;;;2.52;100.00;100735.49;108134;1255;61298;-67
2024/03/05 00:11:33;;;;;;;29.70;19.50;;;;;;;2.49;100.00;100730.42;108076;1255;61262;-67
2024/03/05 00:14:01;;;;;;;28.70;18.90;;;;;;;2.46;100.00;100731.10;108033;1257;73531;-66
2024/03/05 00:16:29;;;;;;;28.80;19.80;;;;;;;2.42;100.00;100732.22;108035;1257;71963;-67
2024/03/05 00:18:57;;;;;;;27.60;19.30;;;;;;;2.38;100.00;100732.42;107986;1260;71173;-67
2024/03/05 00:21:26;;;;;;;30.30;20.10;;;;;;;2.35;100.00;100729.65;108037;1257;61119;-67
2024/03/05 00:23:55;;;;;;;32.20;20.60;;;;;;;2.32;100.00;100729.85;108139;1254;61061;-67
2024/03/05 00:26:25;;;;;;;32.10;19.80;;;;;;;2.31;100.00;100732.84;108103;1254;73395;-67
2024/03/05 00:28:56;;;;;;;33.20;21.40;;;;;;;2.31;100.00;100734.95;108120;1254;72807;-66
2024/03/05 00:31:26;;;;;;;30.80;19.70;;;;;;;2.35;100.00;100740.07;108175;1254;74768;-66
2024/03/05 00:34:03;;;;;;;30.40;20.20;;;;;;;2.40;100.00;100737.48;108059;1260;61357;-65
2024/03/05 00:36:30;;;;;;;33.30;21.60;;;;;;;2.43;100.00;100734.91;108092;1256;59985;-67
2024/03/05 00:39:00;;;;;;;31.80;20.30;;;;;;;2.46;100.00;100733.73;108101;1254;75067;-67
2024/03/05 00:41:27;;;;;;;30.30;20.50;;;;;;;2.49;100.00;100729.61;108046;1257;71246;-67
2024/03/05 00:43:55;;;;;;;28.20;20.00;;;;;;;2.49;100.00;100734.59;108073;1260;71335;-69
2024/03/05 00:46:24;;;;;;;29.70;20.20;;;;;;;2.41;100.00;100728.36;108051;1255;61340;-68
2024/03/05 00:48:53;;;;;;;29.50;20.40;;;;;;;2.32;100.00;100727.09;108102;1254;58985;-67
2024/03/05 00:51:20;;;;;;;30.70;20.40;;;;;;;2.26;100.00;100728.69;108055;1254;73453;-67
2024/03/05 00:53:48;;;;;;;30.90;20.80;;;;;;;2.21;100.00;100724.95;108118;1259;71606;-66
2024/03/05 00:56:16;;;;;;;34.50;21.90;;;;;;;2.20;100.00;100726.52;108033;1254;71404;-67
2024/03/05 00:58:44;;;;;;;29.60;20.40;;;;;;;2.21;100.00;100727.86;108051;1254;62960;-67
2024/03/05 01:01:12;;;;;;;27.20;18.70;;;;;;;2.18;100.00;100731.65;108065;1257;61139;-66
2024/03/05 01:03:40;;;;;;;35.20;20.10;;;;;;;2.12;100.00;100732.48;107956;1257;73343;-65
2024/03/05 01:06:08;;;;;;;28.40;19.60;;;;;;;2.04;100.00;100736.23;107965;1257;71581;-67
2024/03/05 01:08:36;;;;;;;27.60;19.70;;;;;;;1.99;100.00;100735.40;108042;1257;71473;-66
2024/03/05 01:11:04;;;;;;;33.30;20.10;;;;;;;1.96;100.00;100737.96;108105;1254;60433;-66
2024/03/05 01:13:32;;;;;;;32.00;20.70;;;;;;;1.98;100.00;100739.13;108092;1254;61142;-65
2024/03/05 01:16:00;;;;;;;29.90;20.30;;;;;;;2.00;100.00;100733.30;108089;1254;73432;-65
2024/03/05 01:18:28;;;;;;;32.40;21.40;;;;;;;2.03;100.00;100737.23;108111;1254;71740;-66
2024/03/05 01:20:55;;;;;;;32.90;21.30;;;;;;;2.07;100.00;100728.90;108085;1254;71393;-66
2024/03/05 01:23:24;;;;;;;32.60;20.50;;;;;;;2.11;100.00;100731.99;108136;1254;61112;-66
2024/03/05 01:25:52;;;;;;;30.60;21.60;;;;;;;2.15;100.00;100729.98;108133;1259;61132;-65
2024/03/05 01:28:20;;;;;;;31.70;21.10;;;;;;;2.16;100.00;100729.91;108122;1254;73337;-67
2024/03/05 01:30:48;;;;;;;33.90;21.60;;;;;;;2.16;100.00;100731.57;108115;1254;72464;-66
2024/03/05 01:33:22;;;;;;;31.70;21.00;;;;;;;2.16;100.00;100730.68;108093;1254;71612;-66
2024/03/05 01:35:52;;;;;;;30.30;20.70;;;;;;;2.18;100.00;100726.10;108034;1254;61179;-65
2024/03/05 01:38:20;;;;;;;32.40;21.50;;;;;;;2.18;100.00;100729.80;108088;1254;60408;-66
2024/03/05 01:40:48;;;;;;;32.00;21.20;;;;;;;2.19;100.00;100734.86;108120;1254;73482;-66
2024/03/05 01:43:19;;;;;;;30.70;21.20;;;;;;;2.21;100.00;100735.00;108135;1254;71674;-66
2024/03/05 01:45:48;;;;;;;25.20;15.40;;;;;;;2.21;100.00;100735.65;107934;1254;72980;-66
2024/03/05 01:48:16;;;;;;;33.00;21.50;;;;;;;2.21;100.00;100736.75;108115;1254;61327;-66
2024/03/05 01:50:44;;;;;;;31.90;21.10;;;;;;;2.21;100.00;100737.31;108070;1257;60087;-66
2024/03/05 01:53:15;;;;;;;35.40;20.70;;;;;;;2.23;100.00;100739.48;107906;1256;73725;-66
2024/03/05 01:55:43;;;;;;;31.60;20.60;;;;;;;2.22;100.00;100736.55;108051;1257;72829;-66
2024/03/05 01:58:11;;;;;;;30.20;19.40;;;;;;;2.19;100.00;100734.86;108042;1257;71461;-65
2024/03/05 02:00:38;;;;;;;32.80;21.10;;;;;;;2.15;100.00;100733.91;107937;1257;61195;-65
2024/03/05 02:03:06;;;;;;;30.30;20.30;;;;;;;2.10;100.00;100740.38;108169;1254;61077;-66
2024/03/05 02:05:34;;;;;;;33.10;21.80;;;;;;;2.08;100.00;100739.73;108097;1254;73615;-66
2024/03/05 02:08:02;;;;;;;33.10;21.70;;;;;;;2.09;100.00;100739.21;108031;1256;71805;-66
2024/03/05 02:10:31;;;;;;;31.40;20.90;;;;;;;2.10;100.00;100740.58;108080;1254;71414;-65
2024/03/05 02:12:59;;;;;;;34.10;21.50;;;;;;;2.10;100.00;100739.29;108088;1254;61205;-66
2024/03/05 02:15:26;;;;;;;29.10;19.90;;;;;;;2.13;100.00;100743.63;108129;1254;60046;-66
2024/03/05 02:17:54;;;;;;;31.40;21.00;;;;;;;2.17;100.00;100741.18;108090;1254;75068;-67
2024/03/05 02:20:22;;;;;;;31.20;19.90;;;;;;;2.20;100.00;100745.45;108091;1254;72883;-65
2024/03/05 02:22:50;;;;;;;31.90;21.70;;;;;;;2.23;100.00;100738.77;108316;1254;70664;-66
2024/03/05 02:25:19;;;;;;;29.20;19.20;;;;;;;2.24;100.00;100744.30;108084;1257;61125;-67
2024/03/05 02:27:46;;;;;;;30.50;18.20;;;;;;;2.19;100.00;100738.91;108148;1254;61132;-67
2024/03/05 02:30:15;;;;;;;31.90;20.50;;;;;;;2.10;100.00;100742.33;108010;1254;73697;-67
2024/03/05 02:32:43;;;;;;;31.00;20.70;;;;;;;2.04;100.00;100741.66;108136;1254;71525;-66
2024/03/05 02:35:11;;;;;;;32.40;21.10;;;;;;;2.02;100.00;100741.40;108042;1254;71368;-65
2024/03/05 02:37:39;;;;;;;29.00;20.10;;;;;;;2.00;100.00;100745.25;108133;1254;61113;-65
2024/03/05 02:40:11;;;;;;;32.50;21.40;;;;;;;2.02;100.00;100750.24;108364;1254;61246;-65
2024/03/05 02:42:42;;;;;;;29.00;20.80;;;;;;;2.09;100.00;100749.02;108152;1254;73352;-65
2024/03/05 02:45:15;;;;;;;34.80;21.50;;;;;;;2.20;100.00;100739.34;108075;1254;71998;-66
2024/03/05 02:47:43;;;;;;;33.60;22.90;;;;;;;2.32;100.00;100741.44;108060;1254;71206;-66
2024/03/05 02:50:11;;;;;;;32.30;21.50;;;;;;;2.41;100.00;100742.11;108100;1255;61222;-65
2024/03/05 02:52:39;;;;;;;30.40;20.70;;;;;;;2.45;100.00;100744.55;108122;1254;61196;-65
2024/03/05 02:55:11;;;;;;;30.30;21.30;;;;;;;2.47;100.00;100743.95;108463;1254;73719;-65
2024/03/05 02:57:42;;;;;;;30.70;21.40;;;;;;;2.45;100.00;100744.48;108010;1257;72747;-65
2024/03/05 03:00:18;;;;;;;33.30;21.30;;;;;;;2.47;100.00;100744.08;108076;1254;72506;-65
2024/03/05 03:02:48;;;;;;;30.70;20.00;;;;;;;2.48;100.00;100741.73;108142;1254;61237;-66
2024/03/05 03:05:17;;;;;;;31.30;20.20;;;;;;;2.44;100.00;100744.27;108187;1254;61202;-66
2024/03/05 03:07:45;;;;;;;31.70;20.80;;;;;;;2.42;100.00;100741.55;108117;1254;74649;-66
2024/03/05 03:10:13;;;;;;;32.20;20.20;;;;;;;2.42;100.00;100742.13;108126;1254;70571;-66
2024/03/05 03:12:41;;;;;;;26.00;18.70;;;;;;;2.39;100.00;100743.04;108101;1254;71391;-66
2024/03/05 03:15:09;;;;;;;33.30;21.60;;;;;;;2.31;100.00;100741.60;108068;1255;61284;-66
2024/03/05 03:17:43;;;;;;;30.90;21.30;;;;;;;2.25;100.00;100737.69;108106;1254;59228;-66
2024/03/05 03:20:15;;;;;;;32.80;21.50;;;;;;;2.22;100.00;100738.92;108019;1254;74660;-67
2024/03/05 03:22:43;;;;;;;34.60;22.00;;;;;;;2.19;100.00;100741.91;108066;1254;71383;-67
2024/03/05 03:25:12;;;;;;;33.70;22.20;;;;;;;2.19;100.00;100744.23;108393;1254;71325;-68
2024/03/05 03:27:40;;;;;;;32.50;21.50;;;;;;;2.18;100.00;100740.46;108172;1254;61218;-66
2024/03/05 03:30:14;;;;;;;32.10;21.80;;;;;;;2.17;100.00;100739.07;108056;1254;61122;-66
2024/03/05 03:32:41;;;;;;;32.00;20.90;;;;;;;2.19;100.00;100740.58;108171;1254;74739;-66
2024/03/05 03:35:10;;;;;;;31.20;20.50;;;;;;;2.23;100.00;100742.26;108032;1256;72704;-66
2024/03/05 03:37:38;;;;;;;30.50;21.20;;;;;;;2.27;100.00;100744.02;108097;1254;72499;-66
2024/03/05 03:40:09;;;;;;;32.40;21.90;;;;;;;2.32;100.00;100740.70;108126;1253;59550;-65
2024/03/05 03:42:36;;;;;;;33.10;22.10;;;;;;;2.37;100.00;100746.64;108131;1254;60489;-66
2024/03/05 03:45:05;;;;;;;32.30;21.20;;;;;;;2.41;100.00;100746.00;108091;1258;74650;-66
2024/03/05 03:47:33;;;;;;;31.80;21.20;;;;;;;2.43;100.00;100744.42;108209;1254;70720;-67
2024/03/05 03:50:00;;;;;;;30.80;20.60;;;;;;;2.45;100.00;100743.47;108051;1254;72432;-66
2024/03/05 03:52:28;;;;;;;31.90;21.30;;;;;;;2.38;100.00;100740.36;108070;1260;61666;-66
2024/03/05 03:54:57;;;;;;;31.50;21.20;;;;;;;2.30;100.00;100739.77;108141;1254;59253;-65
2024/03/05 03:57:26;;;;;;;30.80;20.10;;;;;;;2.28;100.00;100739.36;108088;1254;74614;-66
2024/03/05 03:59:53;;;;;;;31.50;20.70;;;;;;;2.24;100.00;100740.85;108127;1254;72687;-66
2024/03/05 04:02:21;;;;;;;30.40;21.10;;;;;;;2.17;100.00;100739.40;108136;1254;71694;-67
2024/03/05 04:04:49;;;;;;;32.40;21.70;;;;;;;2.13;100.00;100746.20;107996;1254;61099;-67
2024/03/05 04:07:18;;;;;;;31.90;21.60;;;;;;;2.14;100.00;100744.73;108101;1254;61407;-66
2024/03/05 04:09:46;;;;;;;36.10;23.30;;;;;;;2.15;100.00;100746.36;108080;1254;73386;-66
2024/03/05 04:12:14;;;;;;;33.80;22.20;;;;;;;2.15;100.00;100743.29;108156;1254;72038;-66
2024/03/05 04:14:42;;;;;;;32.70;21.30;;;;;;;2.15;100.00;100738.66;108163;1254;72658;-67
2024/03/05 04:17:09;;;;;;;30.10;20.80;;;;;;;2.13;100.00;100739.62;108138;1259;61135;-66
2024/03/05 04:19:37;;;;;;;33.60;21.70;;;;;;;2.10;100.00;100743.73;108016;1254;59650;-66
2024/03/05 04:22:05;;;;;;;32.00;20.80;;;;;;;2.08;100.00;100747.31;108172;1254;73365;-66
2024/03/05 04:24:35;;;;;;;32.80;21.20;;;;;;;2.08;100.00;100746.29;108135;1254;72824;-66
2024/03/05 04:27:04;;;;;;;31.20;21.00;;;;;;;2.07;100.00;100748.66;108096;1255;72623;-66
2024/03/05 04:29:33;;;;;;;32.00;21.00;;;;;;;2.05;100.00;100752.27;108094;1257;61099;-65
2024/03/05 04:32:08;;;;;;;32.60;21.20;;;;;;;1.83;100.00;100752.01;108093;1254;61090;-66
2024/03/05 04:34:40;;;;;;;30.90;21.00;;;;;;;2.02;100.00;100751.17;107978;1257;73511;-66
2024/03/05 04:37:11;;;;;;;32.90;21.20;;;;;;;2.08;100.00;100751.56;108131;1254;71762;-66
2024/03/05 04:39:41;;;;;;;33.60;22.10;;;;;;;2.12;100.00;100753.20;108083;1254;72460;-67
2024/03/05 04:42:09;;;;;;;30.50;21.50;;;;;;;2.14;100.00;100752.27;108160;1254;61064;-66
2024/03/05 04:44:41;;;;;;;33.20;21.90;;;;;;;2.18;100.00;100752.94;108074;1254;60376;-67
2024/03/05 04:47:10;;;;;;;31.60;20.20;;;;;;;2.26;100.00;100748.80;108132;1254;73854;-68
2024/03/05 04:49:38;;;;;;;31.20;20.70;;;;;;;2.32;100.00;100747.77;108172;1254;71779;-65
2024/03/05 04:52:07;;;;;;;34.10;22.40;;;;;;;2.39;100.00;100749.53;108148;1254;71361;-66
2024/03/05 04:54:35;;;;;;;31.70;20.70;;;;;;;2.44;100.00;100752.18;108072;1254;61160;-67
2024/03/05 04:57:05;;;;;;;30.70;20.90;;;;;;;2.49;100.00;100758.80;108107;1254;61263;-66
2024/03/05 04:59:33;;;;;;;30.10;21.20;;;;;;;2.52;100.00;100759.99;108134;1254;73430;-66
2024/03/05 05:02:01;;;;;;;31.90;21.10;;;;;;;2.60;100.00;100759.45;108127;1254;71743;-66
2024/03/05 05:04:29;;;;;;;29.30;19.70;;;;;;;2.68;100.00;100753.95;108083;1258;71427;-67
2024/03/05 05:06:57;;;;;;;32.80;21.20;;;;;;;2.66;100.00;100750.66;108077;1256;61122;-66
2024/03/05 05:09:25;;;;;;;31.00;21.20;;;;;;;2.60;100.00;100752.44;108104;1254;61218;-66
2024/03/05 05:11:53;;;;;;;31.30;21.40;;;;;;;2.58;100.00;100751.70;108117;1254;74796;-66
2024/03/05 05:14:20;;;;;;;33.70;21.50;;;;;;;2.54;100.00;100756.14;108119;1254;71124;-66
2024/03/05 05:16:48;;;;;;;34.10;22.30;;;;;;;2.48;100.00;100760.51;107968;1254;71663;-66
2024/03/05 05:19:16;;;;;;;31.20;21.90;;;;;;;2.46;100.00;100763.75;108135;1254;61080;-66
2024/03/05 05:21:45;;;;;;;32.40;21.00;;;;;;;2.52;100.00;100767.38;108191;1254;61063;-69
2024/03/05 05:24:13;;;;;;;31.80;22.10;;;;;;;2.59;100.00;100772.99;108158;1254;73387;-67
2024/03/05 05:26:42;;;;;;;35.90;22.70;;;;;;;2.65;100.00;100771.63;108140;1254;71445;-66
2024/03/05 05:29:10;;;;;;;34.50;22.80;;;;;;;2.71;100.00;100771.27;108092;1257;71078;-66
2024/03/05 05:31:50;;;;;;;33.10;21.20;;;;;;;2.75;100.00;100773.11;108132;1254;61221;-65
2024/03/05 05:34:18;;;;;;;35.60;22.90;;;;;;;2.79;100.00;100779.17;108186;1254;61192;-64
2024/03/05 05:36:46;;;;;;;31.90;22.00;;;;;;;2.80;100.00;100782.95;108128;1254;73859;-66
2024/03/05 05:39:14;;;;;;;33.20;21.70;;;;;;;2.80;100.00;100780.17;108173;1254;71496;-65
2024/03/05 05:41:43;;;;;;;31.10;22.10;;;;;;;2.80;100.00;100780.07;108086;1254;71659;-65
2024/03/05 05:44:11;;;;;;;29.60;19.80;;;;;;;2.71;100.00;100777.32;108154;1254;61187;-66
2024/03/05 05:46:38;;;;;;;29.90;21.20;;;;;;;2.61;100.00;100775.11;108148;1256;61259;-66
2024/03/05 05:49:06;;;;;;;32.80;21.50;;;;;;;2.80;100.00;100775.31;108125;1254;73369;-66
2024/03/05 05:51:34;;;;;;;27.10;19.10;;;;;;;2.87;100.00;100774.18;108223;1256;72127;-64
2024/03/05 05:54:10;;;;;;;31.50;19.40;;;;;;;2.91;100.00;100773.54;108098;1255;71150;-66
2024/03/05 05:56:38;;;;;;;28.70;20.20;;;;;;;2.91;100.00;100774.55;108238;1254;61169;-67
2024/03/05 05:59:08;;;;;;;33.30;20.90;;;;;;;2.92;100.00;100774.27;108120;1254;60002;-66
2024/03/05 06:01:37;;;;;;;28.10;19.70;;;;;;;2.93;100.00;100774.27;108160;1254;74652;-66
2024/03/05 06:04:09;;;;;;;31.80;20.80;;;;;;;2.98;100.00;100777.38;108096;1254;71437;-66
2024/03/05 06:06:36;;;;;;;33.50;21.10;;;;;;;3.02;100.00;100772.80;108041;1254;72651;-67
2024/03/05 06:09:11;;;;;;;26.70;19.20;;;;;;;3.05;100.00;100772.70;108084;1254;61285;-67
2024/03/05 06:11:38;;;;;;;24.60;18.10;;;;;;;3.08;100.00;100766.66;108113;1254;61054;-66
2024/03/05 06:14:06;;;;;;;30.50;21.70;;;;;;;3.08;100.00;100764.99;108090;1254;74126;-66
2024/03/05 06:16:35;;;;;;;27.20;19.40;;;;;;;3.10;100.00;100759.96;108502;1254;72498;-66
2024/03/05 06:19:02;;;;;;;28.40;19.30;;;;;;;3.16;100.00;100756.76;108060;1254;71378;-66
2024/03/05 06:21:30;;;;;;;28.30;18.90;;;;;;;3.21;100.00;100755.66;108083;1254;59843;-66
2024/03/05 06:23:59;;;;;;;32.20;20.00;;;;;;;3.25;100.00;100756.75;108189;1254;61217;-65
2024/03/05 06:26:27;;;;;;;28.00;18.90;;;;;;;3.31;100.00;100758.30;108067;1254;74683;-66
2024/03/05 06:28:55;;;;;;;27.50;19.40;;;;;;;3.40;100.00;100754.11;108299;1254;71601;-67
2024/03/05 06:31:23;;;;;;;27.20;18.30;;;;;;;3.50;100.00;100752.34;108099;1254;71210;-66
2024/03/05 06:33:52;;;;;;;27.70;19.60;;;;;;;3.60;100.00;100755.54;108112;1256;60835;-66
2024/03/05 06:36:22;;;;;;;24.00;16.70;;;;;;;3.71;100.00;100749.71;108085;1254;59061;-66
2024/03/05 06:38:50;;;;;;;28.50;19.70;;;;;;;3.83;100.00;100747.69;108148;1254;74745;-66
2024/03/05 06:41:18;;;;;;;33.50;20.20;;;;;;;3.94;100.00;100750.21;108158;1254;72943;-68
2024/03/05 06:43:47;;;;;;;31.10;19.90;;;;;;;4.04;100.00;100756.48;108109;1254;70880;-66
2024/03/05 06:46:17;;;;;;;30.40;19.90;;;;;;;4.14;100.00;100759.71;108108;1254;61333;-65
2024/03/05 06:48:47;;;;;;;27.80;18.90;;;;;;;4.26;100.00;100763.92;108131;1254;61493;-65
2024/03/05 06:51:31;;;;;;;29.50;18.90;;;;;;;4.38;100.00;100759.20;108129;1259;74653;-64
2024/03/05 06:56:46;;;;;;;28.90;19.40;;;;;;;4.54;100.00;100756.96;108096;1256;71720;-67
2024/03/05 06:59:14;;;;;;;29.50;19.00;;;;;;;4.59;100.00;100757.00;108189;1259;59900;-66
2024/03/05 07:01:41;;;;;;;25.60;18.30;;;;;;;4.64;100.00;100757.91;108094;1254;60409;-65
2024/03/05 07:04:09;;;;;;;28.70;20.30;;;;;;;4.68;100.00;100751.79;108189;1254;73338;-67
2024/03/05 07:06:37;;;;;;;27.60;19.20;;;;;;;4.72;100.00;100749.48;108135;1254;74184;-66
2024/03/05 07:09:05;;;;;;;29.90;20.50;;;;;;;4.74;100.00;100743.40;108106;1256;75002;-66
2024/03/05 07:11:33;;;;;;;26.40;18.80;;;;;;;4.75;100.00;100743.80;108140;1254;61227;-67
2024/03/05 07:14:02;;;;;;;28.20;19.70;;;;;;;4.79;100.00;100742.67;108168;1254;62256;-66
2024/03/05 07:16:31;;;;;;;28.80;19.60;;;;;;;4.88;100.00;100740.59;108168;1254;73354;-66
2024/03/05 07:19:03;;;;;;;29.20;19.70;;;;;;;4.97;100.00;100740.64;108136;1254;75094;-68
2024/03/05 07:21:31;;;;;;;28.60;19.30;;;;;;;5.07;100.00;100742.27;108141;1254;71511;-67
2024/03/05 07:23:59;;;;;;;28.20;20.40;;;;;;;5.15;100.00;100743.39;108183;1258;61112;-68
2024/03/05 07:26:28;;;;;;;26.40;18.60;;;;;;;5.25;99.57;100747.55;108200;1254;60676;-66
2024/03/05 07:28:57;;;;;;;31.30;20.00;;;;;;;5.33;98.08;100742.99;108208;1254;75550;-66
2024/03/05 07:31:28;;;;;;;28.60;19.90;;;;;;;5.40;96.60;100742.84;108228;1254;71461;-67
2024/03/05 07:33:56;;;;;;;28.60;20.40;;;;;;;5.46;94.47;100742.42;108196;1254;75014;-67
2024/03/05 07:36:24;;;;;;;26.60;19.30;;;;;;;5.50;93.00;100745.05;108166;1254;61334;-65
2024/03/05 07:38:52;;;;;;;30.70;21.20;;;;;;;5.56;92.27;100745.07;107937;1256;61225;-67
2024/03/05 07:41:20;;;;;;;31.30;20.50;;;;;;;5.66;91.89;100745.73;108386;1256;75067;-66
2024/03/05 07:44:02;;;;;;;28.70;19.30;;;;;;;5.83;91.40;100744.02;108162;1254;74777;-67
2024/03/05 07:46:34;;;;;;;27.30;19.40;;;;;;;5.98;89.91;100745.01;108137;1254;74836;-66
2024/03/05 07:49:03;;;;;;;28.70;20.50;;;;;;;6.12;88.62;100739.88;108001;1254;61119;-66
2024/03/05 07:51:32;;;;;;;29.40;19.60;;;;;;;6.23;87.41;100738.83;108138;1253;60446;-67
2024/03/05 07:54:11;;;;;;;28.20;19.10;;;;;;;6.35;86.35;100734.31;108148;1254;76889;-67
2024/03/05 07:56:40;;;;;;;27.40;19.90;;;;;;;6.43;85.10;100729.85;108087;1254;75064;-67
2024/03/05 07:59:08;;;;;;;26.40;18.90;;;;;;;6.52;84.09;100730.04;108148;1254;74038;-67
2024/03/05 08:01:37;;;;;;;26.00;18.60;;;;;;;6.65;83.31;100734.18;108117;1254;61125;-66
2024/03/05 08:04:05;;;;;;;26.90;20.40;;;;;;;6.77;81.60;100734.38;108173;1254;61786;-66
2024/03/05 08:06:33;;;;;;;27.30;20.00;;;;;;;6.85;80.51;100734.84;108153;1253;74993;-67
2024/03/05 08:09:03;;;;;;;25.60;18.40;;;;;;;6.93;79.80;100729.63;108125;1254;72607;-67
2024/03/05 08:11:31;;;;;;;27.30;20.50;;;;;;;7.02;79.00;100725.86;108310;1254;72852;-67
2024/03/05 08:14:03;;;;;;;27.20;20.30;;;;;;;7.10;78.32;100724.63;108104;1254;63083;-66
2024/03/05 08:16:33;;;;;;;26.00;18.50;;;;;;;7.20;77.93;100720.40;108135;1254;61084;-66
2024/03/05 08:19:04;;;;;;;26.10;19.00;;;;;;;7.33;77.29;100718.35;108153;1254;75649;-66
2024/03/05 08:21:34;;;;;;;28.80;20.10;;;;;;;7.42;75.74;100720.25;108119;1254;71330;-66
2024/03/05 08:24:03;;;;;;;27.00;18.90;;;;;;;7.48;75.05;100718.33;108156;1254;73627;-66
2024/03/05 08:26:31;;;;;;;26.30;19.50;;;;;;;7.54;74.12;100717.70;108119;1254;61508;-66
2024/03/05 08:28:59;;;;;;;27.60;19.70;;;;;;;7.60;73.80;100715.33;108142;1254;61003;-67
2024/03/05 08:31:27;;;;;;;27.60;18.90;;;;;;;7.70;73.87;100712.52;108147;1254;74784;-66
2024/03/05 08:33:55;;;;;;;24.80;18.30;;;;;;;7.83;73.76;100707.58;108087;1254;72990;-67
2024/03/05 08:36:25;;;;;;;27.50;19.90;;;;;;;7.94;72.80;100709.03;108130;1254;74737;-66
2024/03/05 08:38:53;;;;;;;30.00;18.40;;;;;;;8.02;72.09;100705.36;108064;1254;61543;-66
2024/03/05 08:41:21;;;;;;;25.00;18.70;;;;;;;8.10;71.30;100705.44;108175;1254;59151;-66
2024/03/05 08:43:49;;;;;;;25.20;17.80;;;;;;;8.15;70.99;100710.92;108070;1254;77187;-66
2024/03/05 08:46:17;;;;;;;25.80;19.20;;;;;;;8.21;69.66;100711.45;108131;1254;72917;-65
2024/03/05 08:48:44;;;;;;;23.60;17.60;;;;;;;8.22;69.48;100712.22;108116;1254;74960;-70
2024/03/05 08:51:13;;;;;;;24.30;18.60;;;;;;;8.28;69.60;100717.82;108085;1254;61446;-67
2024/03/05 08:53:41;;;;;;;27.10;18.80;;;;;;;8.35;68.91;100714.77;108097;1254;61064;-66
2024/03/05 08:56:09;;;;;;;25.80;18.40;;;;;;;8.40;68.43;100707.64;107945;1254;73436;-66
2024/03/05 08:58:37;;;;;;;27.70;19.50;;;;;;;8.41;67.46;100709.04;108105;1254;73014;-65
2024/03/05 09:01:06;;;;;;;26.10;18.10;;;;;;;8.37;67.23;100706.70;108106;1254;72469;-67
2024/03/05 09:03:35;;;;;;;24.70;18.70;;;;;;;8.40;67.67;100707.48;108098;1254;61885;-66
2024/03/05 09:06:05;;;;;;;27.60;19.90;;;;;;;8.46;67.54;100703.54;108056;1254;61145;-66
2024/03/05 09:08:33;;;;;;;26.70;18.80;;;;;;;8.52;67.40;100705.13;108095;1254;74824;-66
2024/03/05 09:11:01;;;;;;;28.20;20.70;;;;;;;8.51;67.08;100705.54;108148;1254;72025;-65
2024/03/05 09:13:28;;;;;;;27.70;20.50;;;;;;;8.53;66.38;100703.19;108072;1254;73044;-66
2024/03/05 09:15:57;;;;;;;28.10;20.20;;;;;;;8.57;66.59;100698.42;108125;1254;60394;-65
2024/03/05 09:18:25;;;;;;;32.00;22.20;;;;;;;8.65;66.50;100696.15;108111;1254;61650;-67
2024/03/05 09:20:54;;;;;;;25.40;19.20;;;;;;;8.73;66.58;100701.02;108078;1254;74911;-65
2024/03/05 09:23:22;;;;;;;26.30;20.20;;;;;;;8.79;66.04;100696.23;108129;1254;71661;-66
2024/03/05 09:25:51;;;;;;;26.80;19.60;;;;;;;8.82;65.86;100696.07;108100;1254;72885;-67
2024/03/05 09:28:18;;;;;;;27.30;20.00;;;;;;;8.87;65.55;100693.74;108051;1254;61238;-66
2024/03/05 09:30:47;;;;;;;26.80;18.80;;;;;;;8.91;65.26;100690.36;108151;1254;61008;-68
2024/03/05 09:33:15;;;;;;;24.80;18.90;;;;;;;8.94;64.66;100689.05;108104;1254;76759;-65
2024/03/05 09:35:43;;;;;;;26.40;20.50;;;;;;;8.95;64.58;100689.45;108175;1254;72930;-66
2024/03/05 09:38:13;;;;;;;28.40;20.50;;;;;;;9.00;64.78;100687.65;108067;1254;73048;-66
2024/03/05 09:40:42;;;;;;;28.90;21.40;;;;;;;9.08;64.46;100687.95;108074;1254;61144;-66
2024/03/05 09:43:10;;;;;;;33.10;22.00;;;;;;;9.10;64.40;100683.60;108159;1254;61455;-65
2024/03/05 09:45:38;;;;;;;24.40;18.70;;;;;;;9.14;64.58;100682.54;108132;1254;76927;-66
2024/03/05 09:48:06;;;;;;;27.30;19.10;;;;;;;9.22;64.83;100684.73;107860;1254;75031;-65
2024/03/05 09:50:36;;;;;;;27.80;20.40;;;;;;;9.27;64.47;100680.48;108054;1259;71357;-66
2024/03/05 09:53:04;;;;;;;33.10;20.10;;;;;;;9.32;64.45;100679.49;108062;1254;61090;-67
2024/03/05 09:55:33;;;;;;;27.00;20.10;;;;;;;9.37;64.29;100678.44;108109;1254;61102;-68
2024/03/05 09:58:03;;;;;;;25.70;19.90;;;;;;;9.42;63.75;100672.02;108065;1254;74998;-65
2024/03/05 10:00:30;;;;;;;22.90;17.70;;;;;;;9.45;63.41;100669.91;108127;1254;72729;-66
2024/03/05 10:02:58;;;;;;;25.70;18.20;;;;;;;9.50;63.44;100670.94;107941;1255;74882;-67
2024/03/05 10:05:26;;;;;;;28.80;19.50;;;;;;;9.56;63.57;100667.48;108068;1254;61437;-67
2024/03/05 10:07:54;;;;;;;24.50;18.70;;;;;;;9.64;63.54;100661.89;108046;1253;60456;-67
2024/03/05 10:10:22;;;;;;;26.40;19.30;;;;;;;9.75;63.25;100654.66;108106;1253;77050;-66
2024/03/05 10:12:50;;;;;;;24.20;18.60;;;;;;;9.82;62.46;100655.59;108101;1254;72443;-68
2024/03/05 10:15:25;;;;;;;24.40;19.30;;;;;;;9.86;61.87;100651.79;108093;1254;73083;-65
2024/03/05 10:17:54;;;;;;;22.90;18.00;;;;;;;9.92;61.73;100651.12;108066;1254;61434;-67
2024/03/05 10:20:33;;;;;;;24.80;17.20;;;;;;;10.02;60.70;100651.81;108156;1254;61112;-66
2024/03/05 10:23:03;;;;;;;25.10;17.00;;;;;;;10.07;59.68;100646.85;108124;1254;76628;-66
2024/03/05 10:25:36;;;;;;;22.70;17.40;;;;;;;10.09;59.52;100647.88;108142;1254;73148;-66
2024/03/05 10:28:08;;;;;;;22.80;17.00;;;;;;;10.17;59.93;100644.77;108102;1254;73347;-67
2024/03/05 10:30:37;;;;;;;24.30;18.60;;;;;;;10.27;59.56;100644.41;108092;1254;60990;-66
2024/03/05 10:33:09;;;;;;;23.80;18.40;;;;;;;10.39;59.19;100645.64;108064;1254;61138;-66
2024/03/05 10:35:38;;;;;;;21.70;16.60;;;;;;;10.48;58.67;100640.66;108007;1254;74754;-66
2024/03/05 10:38:09;;;;;;;23.10;16.60;;;;;;;10.54;57.73;100637.08;108184;1254;73240;-66
2024/03/05 10:40:39;;;;;;;30.40;19.40;;;;;;;10.52;57.25;100635.62;108069;1254;73020;-67
2024/03/05 10:43:08;;;;;;;24.40;17.20;;;;;;;10.49;57.27;100636.48;108023;1254;61081;-67
2024/03/05 10:45:38;;;;;;;25.10;17.60;;;;;;;10.54;57.61;100633.76;108137;1254;61153;-67
2024/03/05 10:48:09;;;;;;;23.60;17.90;;;;;;;10.68;57.84;100632.16;108111;1254;76853;-67
2024/03/05 10:50:43;;;;;;;23.70;17.50;;;;;;;10.83;57.38;100623.63;108330;1254;74977;-66
2024/03/05 10:53:11;;;;;;;26.80;18.60;;;;;;;10.93;57.02;100619.72;108058;1254;74943;-66
2024/03/05 12:54:22;;;;;;;18.30;12.90;;;;;;;10.75;51.74;100586.64;108091;1255;75679;-67
2024/03/05 12:56:50;;;;;;;16.60;12.60;;;;;;;10.73;52.40;100582.20;108023;1257;73009;-66
2024/03/05 12:59:19;;;;;;;20.50;14.10;;;;;;;10.81;53.05;100581.39;108038;1256;72830;-66
2024/03/05 13:01:47;;;;;;;17.60;13.20;;;;;;;10.88;53.24;100581.90;107997;1257;62306;-66
2024/03/05 13:04:15;;;;;;;15.20;12.10;;;;;;;10.91;51.86;100582.24;108121;1256;62238;-66
2024/03/05 13:06:47;;;;;;;14.70;10.90;;;;;;;10.91;51.12;100584.06;108093;1255;76764;-67
2024/03/05 13:09:17;;;;;;;15.90;11.60;;;;;;;10.88;50.82;100583.46;108028;1256;75125;-67
2024/03/05 13:11:46;;;;;;;14.90;11.50;;;;;;;10.87;50.74;100581.79;108013;1254;73031;-69
2024/03/05 13:14:14;;;;;;;16.40;12.20;;;;;;;10.87;50.19;100577.48;108118;1257;61095;-67